Time;durP1;ratioP1;P1;durP2;ratioP2;P2;SDS_P1;SDS_P2;PMS_P1;PMS_P2;Temp;Humidity;BMP_temperature;BMP_pressure;BME280_temperature;BME280_humidity;BME280_pressure;Samples;Min_cycle;Max_cycle;Signal;HPM_P1;HPM_P2
2022/06/28 00:01:21;;;;;;;3.28;1.90;;;18.40;99.90;;;;;;5054835;28;20204;-89
2022/06/28 00:03:47;;;;;;;3.22;2.03;;;18.40;99.90;;;;;;5038205;28;20207;-89
2022/06/28 00:06:13;;;;;;;4.55;2.05;;;18.40;99.90;;;;;;5038810;28;20173;-89
2022/06/28 00:08:39;;;;;;;2.10;1.88;;;18.40;99.90;;;;;;5037891;28;20207;-89
2022/06/28 00:11:05;;;;;;;3.15;2.03;;;18.40;99.90;;;;;;5038452;28;20672;-89
2022/06/28 00:13:32;;;;;;;2.70;1.80;;;18.40;99.90;;;;;;5040906;28;20235;-89
2022/06/28 00:16:06;;;;;;;2.60;1.70;;;18.40;99.90;;;;;;5055396;28;20217;-89
2022/06/28 00:18:45;;;;;;;5.47;2.00;;;18.40;99.90;;;;;;5072005;28;20197;-89
2022/06/28 00:21:12;;;;;;;3.55;2.17;;;18.40;99.90;;;;;;5021660;28;20247;-89
2022/06/28 00:23:39;;;;;;;2.97;2.08;;;18.50;99.90;;;;;;5027749;28;20261;-89
2022/06/28 00:26:06;;;;;;;4.30;2.42;;;18.50;99.90;;;;;;5068265;28;20206;-89
2022/06/28 00:28:34;;;;;;;4.22;2.30;;;18.50;99.90;;;;;;5038993;28;20188;-89
2022/06/28 00:31:00;;;;;;;2.40;2.08;;;18.40;99.90;;;;;;5040052;28;20208;-89
2022/06/28 00:33:26;;;;;;;3.78;2.20;;;18.50;99.90;;;;;;5038033;28;20201;-89
2022/06/28 00:35:52;;;;;;;3.38;2.17;;;18.50;99.90;;;;;;5063904;28;20243;-89
2022/06/28 00:38:19;;;;;;;3.20;2.20;;;18.60;99.90;;;;;;5039739;28;20226;-89
2022/06/28 00:40:52;;;;;;;2.60;2.10;;;18.60;99.90;;;;;;5042218;28;20297;-89
2022/06/28 00:43:20;;;;;;;5.15;2.35;;;18.60;99.90;;;;;;5067380;28;20181;-89
2022/06/28 00:45:46;;;;;;;5.95;2.28;;;18.60;99.90;;;;;;5052246;28;20269;-89
2022/06/28 00:48:14;;;;;;;2.70;2.30;;;18.50;99.90;;;;;;5036213;28;20182;-89
2022/06/28 00:50:41;;;;;;;3.97;2.20;;;18.50;99.90;;;;;;5053736;28;20201;-89
2022/06/28 00:53:10;;;;;;;3.20;2.45;;;18.50;99.90;;;;;;5057122;28;20252;-89
2022/06/28 00:55:36;;;;;;;3.38;2.13;;;18.40;99.90;;;;;;5056845;28;20198;-89
2022/06/28 00:58:04;;;;;;;4.97;2.38;;;18.40;99.90;;;;;;5041029;28;20677;-89
2022/06/28 01:00:37;;;;;;;3.40;2.22;;;18.30;99.90;;;;;;5040915;28;20288;-89
2022/06/28 01:03:05;;;;;;;7.85;2.55;;;18.30;99.90;;;;;;5041853;28;20176;-89
2022/06/28 01:05:32;;;;;;;5.35;2.08;;;18.30;99.90;;;;;;5041306;28;20510;-89
2022/06/28 01:07:59;;;;;;;5.75;1.75;;;18.30;99.90;;;;;;5038736;28;20184;-89
2022/06/28 01:10:26;;;;;;;3.40;1.92;;;18.30;99.90;;;;;;5039992;28;20181;-89
2022/06/28 01:12:52;;;;;;;5.75;2.22;;;18.30;99.90;;;;;;5038918;28;20200;-89
2022/06/28 01:15:18;;;;;;;4.72;1.98;;;18.30;99.90;;;;;;5034732;28;20228;-89
2022/06/28 01:17:50;;;;;;;5.50;2.10;;;18.30;99.90;;;;;;5036181;28;20174;-89
2022/06/28 01:20:44;;;;;;;5.40;2.10;;;18.30;99.90;;;;;;5047378;28;20201;-89
2022/06/28 01:23:31;;;;;;;8.07;2.15;;;18.40;99.90;;;;;;5057060;28;20210;-89
2022/06/28 01:26:17;;;;;;;5.53;2.00;;;18.40;99.90;;;;;;5041117;28;20181;-89
2022/06/28 01:28:47;;;;;;;9.15;2.00;;;18.40;99.90;;;;;;5039877;28;20184;-89
2022/06/28 01:31:23;;;;;;;6.28;2.28;;;18.30;99.90;;;;;;5055284;28;20211;-89
2022/06/28 01:33:52;;;;;;;6.47;2.28;;;18.30;99.90;;;;;;5039809;28;20182;-89
2022/06/28 01:36:39;;;;;;;4.18;2.08;;;18.30;99.90;;;;;;5035085;28;20209;-89
2022/06/28 01:39:06;;;;;;;4.95;2.10;;;18.30;99.90;;;;;;5038699;28;20177;-89
2022/06/28 01:41:32;;;;;;;2.92;1.70;;;18.20;99.90;;;;;;5039186;28;20197;-89
2022/06/28 01:44:08;;;;;;;4.65;2.30;;;18.30;99.90;;;;;;5038804;28;20184;-89
2022/06/28 01:46:39;;;;;;;3.72;2.30;;;18.30;99.90;;;;;;5051645;28;20176;-89
2022/06/28 01:49:10;;;;;;;4.63;2.10;;;18.20;99.90;;;;;;5033834;28;20200;-89
2022/06/28 01:51:37;;;;;;;6.88;2.38;;;18.20;99.90;;;;;;5037340;28;20283;-89
2022/06/28 01:54:04;;;;;;;6.93;2.03;;;18.20;99.90;;;;;;5050395;28;20201;-89
2022/06/28 01:56:33;;;;;;;4.05;2.10;;;18.20;99.90;;;;;;5068068;28;20200;-89
2022/06/28 01:59:03;;;;;;;7.53;2.17;;;18.20;99.90;;;;;;5034073;28;20185;-89
2022/06/28 02:01:40;;;;;;;7.25;2.38;;;18.10;99.90;;;;;;5051911;28;20263;-89
2022/06/28 02:04:19;;;;;;;6.57;1.85;;;18.10;99.90;;;;;;5037754;28;20203;-89
2022/06/28 02:06:47;;;;;;;6.65;2.30;;;18.10;99.90;;;;;;5057403;28;20211;-89
2022/06/28 02:09:13;;;;;;;3.85;1.90;;;18.00;99.90;;;;;;5049577;28;20174;-89
2022/06/28 02:11:46;;;;;;;3.03;2.10;;;18.00;99.90;;;;;;5053446;28;20205;-89
2022/06/28 02:14:14;;;;;;;4.43;2.20;;;18.00;99.90;;;;;;5037604;28;20189;-89
2022/06/28 02:16:41;;;;;;;7.55;2.35;;;18.00;99.90;;;;;;5048188;28;20685;-90
2022/06/28 02:19:07;;;;;;;5.90;2.47;;;18.00;99.90;;;;;;5068399;28;20204;-89
2022/06/28 02:21:43;;;;;;;4.47;2.13;;;18.00;99.90;;;;;;5037637;28;20193;-89
2022/06/28 02:24:10;;;;;;;5.55;2.17;;;18.00;99.90;;;;;;5047827;28;20169;-89
2022/06/28 02:26:37;;;;;;;7.00;2.47;;;17.90;99.90;;;;;;5037445;28;20256;-89
2022/06/28 02:29:05;;;;;;;4.50;1.85;;;17.90;99.90;;;;;;5039340;28;20182;-89
2022/06/28 02:31:32;;;;;;;7.38;2.72;;;17.90;99.90;;;;;;5067421;28;20209;-89
2022/06/28 02:33:58;;;;;;;3.80;2.20;;;17.90;99.90;;;;;;5034101;28;20186;-89
2022/06/28 02:41:41;;;;;;;6.18;2.83;;;17.80;99.90;;;;;;5054282;28;20235;-89
2022/06/28 02:44:39;;;;;;;4.88;2.60;;;17.80;99.90;;;;;;5039443;28;20169;-89
2022/06/28 02:47:04;;;;;;;3.70;2.28;;;17.90;99.90;;;;;;5040115;28;20177;-89
2022/06/28 02:49:32;;;;;;;2.90;2.40;;;17.90;99.90;;;;;;5041115;28;20177;-89
2022/06/28 02:51:58;;;;;;;4.60;2.50;;;17.90;99.90;;;;;;5040623;28;20219;-89
2022/06/28 02:54:24;;;;;;;4.72;2.30;;;17.90;99.90;;;;;;5039382;28;20223;-89
2022/06/28 02:56:50;;;;;;;3.33;2.58;;;17.90;99.90;;;;;;5035692;28;20204;-89
2022/06/28 02:59:16;;;;;;;4.47;3.20;;;17.90;99.90;;;;;;5064145;28;20183;-88
2022/06/28 03:01:42;;;;;;;5.53;2.60;;;17.90;99.90;;;;;;5039852;28;20208;-89
2022/06/28 03:04:08;;;;;;;4.95;2.83;;;17.80;99.90;;;;;;5037941;28;20178;-89
2022/06/28 03:06:34;;;;;;;3.55;2.40;;;17.80;99.90;;;;;;5081436;28;20232;-89
2022/06/28 03:09:00;;;;;;;4.13;2.50;;;17.80;99.90;;;;;;5052087;28;20185;-89
2022/06/28 03:11:26;;;;;;;4.28;2.40;;;17.70;99.90;;;;;;5046630;28;20189;-90
2022/06/28 03:13:52;;;;;;;7.50;3.00;;;17.80;99.90;;;;;;5075528;28;20223;-88
2022/06/28 03:16:18;;;;;;;5.35;2.70;;;17.70;99.90;;;;;;5073627;28;20199;-88
2022/06/28 03:18:44;;;;;;;4.88;2.75;;;17.60;99.90;;;;;;5050429;28;20184;-89
2022/06/28 03:21:12;;;;;;;5.37;2.33;;;17.50;99.90;;;;;;5039608;28;20204;-89
2022/06/28 03:23:38;;;;;;;4.73;2.97;;;17.40;99.90;;;;;;5040727;28;20169;-88
2022/06/28 03:26:04;;;;;;;3.35;2.58;;;17.40;99.90;;;;;;5042280;28;20197;-89
2022/06/28 03:28:30;;;;;;;4.38;2.63;;;17.30;99.90;;;;;;5039054;28;20181;-89
2022/06/28 03:30:59;;;;;;;5.88;2.83;;;17.30;99.90;;;;;;5039056;28;20193;-89
2022/06/28 03:33:25;;;;;;;4.50;2.95;;;17.30;99.90;;;;;;5053045;28;20200;-88
2022/06/28 03:35:51;;;;;;;5.07;2.72;;;17.40;99.90;;;;;;5039112;28;20381;-89
2022/06/28 03:38:18;;;;;;;7.22;3.08;;;17.40;99.90;;;;;;5039198;28;20170;-89
2022/06/28 03:41:02;;;;;;;6.17;3.53;;;17.50;99.90;;;;;;5058452;28;20227;-89
2022/06/28 03:43:29;;;;;;;6.93;3.20;;;17.60;99.90;;;;;;5038631;28;20178;-89
2022/06/28 03:46:06;;;;;;;5.45;2.95;;;17.60;99.90;;;;;;5039145;28;20284;-89
2022/06/28 03:48:40;;;;;;;7.07;3.15;;;17.60;99.90;;;;;;5022421;28;20174;-88
2022/06/28 03:51:25;;;;;;;6.07;3.25;;;17.70;99.90;;;;;;5057503;28;20220;-89
2022/06/28 03:54:25;;;;;;;4.72;2.70;;;17.70;99.90;;;;;;5055931;28;20208;-89
2022/06/28 03:57:01;;;;;;;9.63;3.13;;;17.70;99.90;;;;;;5049306;28;20205;-89
2022/06/28 03:59:27;;;;;;;6.10;2.97;;;17.70;99.90;;;;;;5037889;28;20243;-89
2022/06/28 04:02:04;;;;;;;3.95;2.50;;;17.60;99.90;;;;;;5037249;28;20193;-88
2022/06/28 04:04:31;;;;;;;3.85;2.42;;;17.60;99.90;;;;;;5041385;28;20257;-92
2022/06/28 04:06:57;;;;;;;5.10;2.80;;;17.60;99.90;;;;;;5052499;28;20178;-89
2022/06/28 04:09:26;;;;;;;4.68;2.50;;;17.50;99.90;;;;;;5061912;28;20173;-89
2022/06/28 04:11:56;;;;;;;5.13;2.33;;;17.50;99.90;;;;;;5037363;28;20212;-89
2022/06/28 04:14:25;;;;;;;2.53;2.33;;;17.50;99.90;;;;;;5045407;28;20181;-90
2022/06/28 04:16:52;;;;;;;5.57;2.20;;;17.50;99.90;;;;;;5033822;28;20204;-89
2022/06/28 04:19:27;;;;;;;2.72;2.50;;;17.40;99.90;;;;;;5039917;28;20196;-90
2022/06/28 04:21:54;;;;;;;5.20;2.13;;;17.40;99.90;;;;;;5038727;28;20190;-90
2022/06/28 04:24:22;;;;;;;4.15;2.17;;;17.40;99.90;;;;;;5062773;28;20174;-89
2022/06/28 04:27:23;;;;;;;2.28;2.08;;;17.40;99.90;;;;;;5039666;28;20260;-90
2022/06/28 04:29:50;;;;;;;2.40;1.90;;;17.40;99.90;;;;;;5051579;28;20185;-89
2022/06/28 04:32:37;;;;;;;5.90;2.53;;;17.30;99.90;;;;;;5049095;28;20304;-90
2022/06/28 04:35:06;;;;;;;6.87;2.00;;;17.40;99.90;;;;;;5051298;28;20221;-88
2022/06/28 04:37:33;;;;;;;3.57;2.27;;;17.40;99.90;;;;;;5036100;28;20200;-89
2022/06/28 04:40:10;;;;;;;3.35;1.92;;;17.40;99.90;;;;;;5051863;28;20177;-88
2022/06/28 04:42:46;;;;;;;1.85;1.75;;;17.40;99.90;;;;;;5060962;28;20174;-89
2022/06/28 04:45:14;;;;;;;4.13;1.90;;;17.40;99.90;;;;;;5055887;28;20268;-89
2022/06/28 04:47:56;;;;;;;5.90;2.33;;;17.40;99.90;;;;;;5043825;28;20173;-89
2022/06/28 04:50:22;;;;;;;4.10;2.00;;;17.30;99.90;;;;;;5058450;28;20266;-89
2022/06/28 04:52:49;;;;;;;2.43;1.70;;;17.30;99.90;;;;;;5057552;28;20209;-89
2022/06/28 04:55:18;;;;;;;5.50;2.00;;;17.30;99.90;;;;;;5038005;28;20214;-89
2022/06/28 04:57:53;;;;;;;2.38;1.83;;;17.30;99.90;;;;;;5040130;28;20181;-89
2022/06/28 05:00:21;;;;;;;4.87;2.10;;;17.30;99.90;;;;;;5040556;28;20173;-90
2022/06/28 05:03:00;;;;;;;3.17;1.87;;;17.30;99.90;;;;;;5043469;28;20173;-89
2022/06/28 05:05:50;;;;;;;3.17;1.87;;;17.30;99.90;;;;;;5062812;28;20233;-89
2022/06/28 05:08:18;;;;;;;5.30;1.93;;;17.40;99.90;;;;;;5042251;28;20188;-89
2022/06/28 05:11:06;;;;;;;2.03;1.60;;;17.50;99.90;;;;;;5032538;28;20251;-90
2022/06/28 05:13:59;;;;;;;2.88;1.88;;;17.60;99.90;;;;;;5058318;28;20208;-89
2022/06/28 05:16:29;;;;;;;4.05;1.70;;;17.80;99.90;;;;;;5056961;28;20197;-91
2022/06/28 05:18:57;;;;;;;3.60;1.80;;;17.80;99.90;;;;;;5039065;28;20166;-91
2022/06/28 05:21:31;;;;;;;2.35;1.77;;;17.80;99.90;;;;;;5037859;28;20189;-91
2022/06/28 05:23:57;;;;;;;3.00;1.90;;;17.90;99.90;;;;;;5037242;28;20260;-91
2022/06/28 05:26:37;;;;;;;3.08;1.80;;;18.00;99.90;;;;;;5039226;28;20181;-84
2022/06/28 05:29:22;;;;;;;3.90;2.00;;;18.10;99.90;;;;;;5039879;28;20227;-84
2022/06/28 05:31:48;;;;;;;3.60;1.95;;;18.20;99.90;;;;;;5056067;28;20197;-90
2022/06/28 05:34:14;;;;;;;5.97;2.22;;;18.20;99.90;;;;;;5059644;28;20238;-90
2022/06/28 05:36:41;;;;;;;2.70;1.60;;;18.30;99.90;;;;;;5020320;28;20256;-90
2022/06/28 05:39:09;;;;;;;2.03;1.90;;;18.30;99.90;;;;;;5045398;28;20238;-89
2022/06/28 05:41:36;;;;;;;2.17;1.88;;;18.20;99.90;;;;;;5038330;28;20243;-89
2022/06/28 05:44:02;;;;;;;4.32;2.28;;;18.20;99.90;;;;;;5034296;28;20180;-89
2022/06/28 05:46:29;;;;;;;2.50;1.83;;;18.20;99.90;;;;;;5078821;28;20268;-89
2022/06/28 05:48:55;;;;;;;3.72;2.38;;;18.30;99.90;;;;;;5057902;28;20274;-89
2022/06/28 05:51:21;;;;;;;2.58;2.28;;;18.30;99.90;;;;;;5033847;28;20193;-89
2022/06/28 05:53:48;;;;;;;3.13;1.92;;;18.30;99.90;;;;;;5049952;28;20170;-89
2022/06/28 05:56:14;;;;;;;2.10;1.88;;;18.30;99.90;;;;;;5040392;28;20294;-90
2022/06/28 05:58:40;;;;;;;2.28;1.90;;;18.40;99.90;;;;;;5040360;28;20208;-90
2022/06/28 06:01:06;;;;;;;2.60;2.40;;;18.40;99.90;;;;;;5037174;28;20198;-90
2022/06/28 06:03:33;;;;;;;2.60;2.20;;;18.50;99.90;;;;;;5053844;28;20200;-90
2022/06/28 06:06:00;;;;;;;4.03;2.42;;;18.50;99.90;;;;;;5025798;28;20204;-90
2022/06/28 06:08:28;;;;;;;3.03;2.22;;;18.60;99.90;;;;;;5037139;28;20174;-89
2022/06/28 06:10:54;;;;;;;2.70;2.50;;;18.80;99.90;;;;;;5036691;28;20194;-89
2022/06/28 06:13:20;;;;;;;3.72;2.10;;;18.80;99.90;;;;;;5041223;28;20243;-90
2022/06/28 06:15:46;;;;;;;2.30;2.10;;;19.00;99.90;;;;;;5050538;28;20697;-91
2022/06/28 06:18:12;;;;;;;2.97;2.75;;;19.20;99.90;;;;;;5050760;28;20196;-91
2022/06/28 06:20:38;;;;;;;3.20;2.30;;;19.30;99.90;;;;;;5051133;28;20186;-90
2022/06/28 06:23:04;;;;;;;4.55;2.40;;;19.30;99.90;;;;;;5034254;28;20220;-90
2022/06/28 06:25:50;;;;;;;2.80;2.50;;;19.40;99.90;;;;;;5050461;28;20188;-91
2022/06/28 06:28:16;;;;;;;3.35;2.72;;;19.50;99.90;;;;;;5050919;28;20178;-90
2022/06/28 06:30:42;;;;;;;2.78;2.53;;;19.30;99.90;;;;;;5050408;28;20212;-89
2022/06/28 06:33:15;;;;;;;5.72;2.47;;;19.30;99.90;;;;;;5033983;28;20189;-90
2022/06/28 06:36:00;;;;;;;3.67;2.78;;;19.30;99.90;;;;;;5059735;28;20210;-90
2022/06/28 06:38:26;;;;;;;2.80;2.50;;;19.30;99.90;;;;;;5034138;28;20185;-90
2022/06/28 06:40:55;;;;;;;3.20;2.42;;;19.20;99.90;;;;;;5034228;28;20720;-90
2022/06/28 06:43:22;;;;;;;2.55;2.17;;;19.10;99.90;;;;;;5033848;28;20174;-90
2022/06/28 06:45:54;;;;;;;3.95;2.58;;;19.00;99.90;;;;;;5034318;28;20185;-90
2022/06/28 06:48:24;;;;;;;4.57;3.22;;;18.90;99.90;;;;;;5033856;28;20201;-90
2022/06/28 06:50:50;;;;;;;4.47;2.95;;;18.60;99.90;;;;;;5033366;28;20288;-90
2022/06/28 06:53:18;;;;;;;5.68;3.78;;;18.40;99.90;;;;;;5033616;28;20185;-89
2022/06/28 06:55:46;;;;;;;3.85;3.55;;;18.30;99.90;;;;;;5033397;28;20212;-90
2022/06/28 06:58:12;;;;;;;5.07;4.50;;;18.30;99.90;;;;;;5033531;28;20178;-90
2022/06/28 07:00:39;;;;;;;8.90;5.35;;;18.20;99.90;;;;;;5033398;28;20194;-90
2022/06/28 07:03:05;;;;;;;5.70;5.03;;;18.20;99.90;;;;;;5033515;28;20170;-90
2022/06/28 07:05:31;;;;;;;6.20;5.60;;;18.20;99.90;;;;;;5033218;28;20186;-90
2022/06/28 07:07:57;;;;;;;6.68;4.90;;;18.20;99.90;;;;;;5033784;28;20181;-90
2022/06/28 07:10:32;;;;;;;5.55;5.05;;;18.40;99.90;;;;;;5035295;28;20296;-90
2022/06/28 07:12:58;;;;;;;5.57;5.03;;;18.60;99.90;;;;;;5034301;28;20265;-89
2022/06/28 07:15:25;;;;;;;6.00;5.38;;;18.80;99.90;;;;;;5034624;28;20216;-90
2022/06/28 07:17:51;;;;;;;5.28;4.82;;;18.90;99.90;;;;;;5034378;28;20170;-90
2022/06/28 07:20:17;;;;;;;6.25;5.43;;;19.10;99.90;;;;;;5035797;28;20177;-90
2022/06/28 07:22:43;;;;;;;6.75;6.05;;;19.20;99.90;;;;;;5033212;28;20209;-90
2022/06/28 07:25:13;;;;;;;8.07;5.78;;;19.30;99.90;;;;;;5033816;28;20189;-90
2022/06/28 07:27:40;;;;;;;8.75;5.95;;;19.40;99.90;;;;;;5033080;28;20190;-90
2022/06/28 07:30:06;;;;;;;6.97;6.03;;;19.60;99.90;;;;;;5033107;28;20182;-90
2022/06/28 07:32:32;;;;;;;6.75;6.15;;;19.70;99.90;;;;;;5032240;28;20292;-90
2022/06/28 07:34:58;;;;;;;7.20;6.40;;;19.80;99.90;;;;;;5032927;28;20194;-90
2022/06/28 07:37:24;;;;;;;6.22;5.72;;;19.90;99.90;;;;;;5032954;28;20181;-90
2022/06/28 07:39:52;;;;;;;7.28;6.57;;;20.10;99.90;;;;;;5033136;28;20182;-90
2022/06/28 07:42:24;;;;;;;7.38;5.45;;;20.30;99.90;;;;;;5034046;28;20232;-90
2022/06/28 07:45:14;;;;;;;5.68;5.20;;;20.40;99.90;;;;;;5048229;28;20193;-89
2022/06/28 07:47:40;;;;;;;6.15;5.65;;;20.60;99.90;;;;;;5032641;28;20178;-91
2022/06/28 07:52:51;;;;;;;5.28;4.88;;;21.00;99.90;;;;;;5032917;28;20328;-90
2022/06/28 07:55:22;;;;;;;5.93;5.50;;;21.10;99.90;;;;;;5032865;28;20205;-90
2022/06/28 07:58:10;;;;;;;6.32;5.80;;;21.10;99.90;;;;;;5035860;28;20189;-90
2022/06/28 08:00:37;;;;;;;6.40;5.90;;;20.90;99.90;;;;;;5032974;28;20182;-90
2022/06/28 08:03:17;;;;;;;7.03;5.40;;;20.90;99.90;;;;;;5034939;28;20185;-90
2022/06/28 08:05:43;;;;;;;5.78;5.38;;;20.70;99.90;;;;;;5032367;28;20190;-90
2022/06/28 08:08:12;;;;;;;6.70;6.10;;;20.70;99.90;;;;;;5033269;28;20181;-90
2022/06/28 08:10:40;;;;;;;5.97;5.55;;;20.80;99.90;;;;;;5032914;28;20182;-90
2022/06/28 08:13:12;;;;;;;6.80;6.22;;;20.90;99.90;;;;;;5032995;28;20193;-89
2022/06/28 08:15:39;;;;;;;6.05;5.50;;;21.20;99.90;;;;;;5032513;28;20300;-90
2022/06/28 08:18:06;;;;;;;6.43;5.82;;;21.20;99.90;;;;;;5032719;28;20208;-90
2022/06/28 08:20:33;;;;;;;5.72;5.25;;;21.30;99.90;;;;;;5032820;28;20186;-90
2022/06/28 08:23:01;;;;;;;6.10;5.63;;;21.30;99.90;;;;;;5033531;28;20181;-90
2022/06/28 08:25:28;;;;;;;6.47;5.88;;;21.30;99.90;;;;;;5032545;28;20182;-90
2022/06/28 08:27:54;;;;;;;5.95;5.45;;;21.30;99.90;;;;;;5033371;28;20653;-90
2022/06/28 08:30:20;;;;;;;6.10;5.60;;;21.30;99.90;;;;;;5033850;28;20188;-90
2022/06/28 08:32:46;;;;;;;5.00;4.45;;;21.40;99.90;;;;;;5033507;28;20207;-90
2022/06/28 08:35:12;;;;;;;5.03;4.63;;;21.60;99.90;;;;;;5036577;28;20186;-89
2022/06/28 08:37:38;;;;;;;4.72;4.25;;;21.80;99.90;;;;;;5021534;28;20273;-90
2022/06/28 08:40:04;;;;;;;4.15;3.85;;;21.80;99.90;;;;;;5037517;28;20242;-90
2022/06/28 08:42:34;;;;;;;5.70;5.30;;;21.80;99.90;;;;;;5036365;28;20197;-90
2022/06/28 08:45:01;;;;;;;4.53;4.00;;;21.80;99.90;;;;;;5036163;28;20186;-90
2022/06/28 08:47:32;;;;;;;4.22;3.92;;;21.60;99.90;;;;;;5036279;28;20175;-90
2022/06/28 08:50:04;;;;;;;4.72;3.65;;;21.60;99.90;;;;;;5036109;28;20182;-90
2022/06/28 08:52:36;;;;;;;3.53;3.33;;;21.60;99.90;;;;;;5036058;28;20293;-90
2022/06/28 08:55:04;;;;;;;3.63;3.33;;;21.70;99.90;;;;;;5036347;28;20181;-90
2022/06/28 08:57:32;;;;;;;4.18;3.20;;;21.80;99.90;;;;;;5036470;28;20211;-90
2022/06/28 08:59:58;;;;;;;3.42;2.97;;;21.70;99.90;;;;;;5036044;28;20182;-91
2022/06/28 09:02:24;;;;;;;3.20;3.00;;;21.70;99.90;;;;;;5036129;28;20194;-91
2022/06/28 09:04:53;;;;;;;3.75;3.25;;;21.70;99.90;;;;;;5042346;28;20189;-91
2022/06/28 09:07:22;;;;;;;4.30;3.03;;;21.60;99.90;;;;;;5059540;28;20177;-90
2022/06/28 09:09:48;;;;;;;3.00;2.80;;;21.50;99.90;;;;;;5059247;28;20210;-90
2022/06/28 09:12:14;;;;;;;3.80;3.40;;;21.50;99.90;;;;;;5058932;28;20691;-90
2022/06/28 09:14:40;;;;;;;4.50;3.63;;;21.40;99.90;;;;;;5058572;28;20267;-90
2022/06/28 09:17:18;;;;;;;4.07;3.65;;;21.40;99.90;;;;;;5058618;28;20212;-90
2022/06/28 09:19:44;;;;;;;3.75;3.40;;;21.60;99.90;;;;;;5075389;28;20195;-90
2022/06/28 09:22:37;;;;;;;3.83;3.58;;;21.70;99.90;;;;;;5058482;28;20196;-90
2022/06/28 09:25:10;;;;;;;3.95;3.20;;;21.60;99.90;;;;;;5058102;28;20177;-90
2022/06/28 09:27:38;;;;;;;4.68;3.70;;;21.70;99.90;;;;;;5058946;28;20179;-90
2022/06/28 09:30:08;;;;;;;4.47;3.55;;;21.60;99.90;;;;;;5058341;28;20177;-91
2022/06/28 09:32:36;;;;;;;4.00;3.58;;;21.60;99.90;;;;;;5058270;28;20243;-90
2022/06/28 09:35:06;;;;;;;4.00;3.70;;;21.80;99.90;;;;;;5057926;28;20184;-90
2022/06/28 09:37:56;;;;;;;4.57;3.25;;;21.90;99.90;;;;;;5057986;28;20185;-90
2022/06/28 09:40:28;;;;;;;3.33;2.97;;;21.90;99.90;;;;;;5074974;28;20283;-90
2022/06/28 09:43:09;;;;;;;4.18;3.60;;;22.00;99.90;;;;;;5058382;28;20203;-90
2022/06/28 09:45:36;;;;;;;3.85;3.50;;;22.30;99.90;;;;;;5074178;28;20203;-91
2022/06/28 09:48:03;;;;;;;3.42;3.13;;;22.50;99.90;;;;;;5057951;28;20189;-90
2022/06/28 09:50:32;;;;;;;3.72;3.28;;;22.60;99.90;;;;;;5058129;28;20260;-90
2022/06/28 09:52:59;;;;;;;3.75;3.45;;;23.00;99.90;;;;;;5057883;28;20180;-90
2022/06/28 09:55:27;;;;;;;3.83;3.03;;;23.20;99.90;;;;;;5057721;28;20208;-90
2022/06/28 09:57:54;;;;;;;4.38;3.00;;;23.40;99.90;;;;;;5057919;28;20207;-91
2022/06/28 10:00:21;;;;;;;4.00;3.70;;;23.60;99.90;;;;;;5057673;28;20176;-91
2022/06/28 10:02:48;;;;;;;3.22;2.92;;;23.60;99.90;;;;;;5057969;28;20191;-90
2022/06/28 10:05:14;;;;;;;3.72;3.42;;;23.40;99.90;;;;;;5057758;28;20180;-90
2022/06/28 10:07:40;;;;;;;3.08;2.88;;;23.40;99.90;;;;;;5057847;28;20233;-90
2022/06/28 10:10:10;;;;;;;3.60;2.92;;;23.50;99.90;;;;;;5057750;28;20177;-90
2022/06/28 10:15:44;;;;;;;3.00;2.80;;;23.80;99.90;;;;;;5091303;28;20216;-90
2022/06/28 10:18:15;;;;;;;2.70;2.50;;;24.00;99.90;;;;;;5057756;28;20194;-90
2022/06/28 10:20:46;;;;;;;3.13;2.70;;;23.80;99.90;;;;;;5057745;28;20200;-90
2022/06/28 10:23:27;;;;;;;4.70;3.15;;;23.90;99.90;;;;;;5057386;28;20182;-90
2022/06/28 10:26:19;;;;;;;2.40;2.20;;;24.20;99.90;;;;;;5073784;28;20700;-89
2022/06/28 10:29:06;;;;;;;4.22;2.45;;;24.30;99.90;;;;;;5057527;28;20185;-90
2022/06/28 10:31:34;;;;;;;2.70;2.50;;;24.30;99.90;;;;;;5057099;28;20200;-90
2022/06/28 10:34:02;;;;;;;3.17;2.50;;;24.40;99.90;;;;;;5074100;28;20176;-90
2022/06/28 10:36:40;;;;;;;2.88;2.60;;;24.60;99.90;;;;;;5056860;28;20212;-90
2022/06/28 10:39:06;;;;;;;4.05;2.63;;;24.70;99.90;;;;;;5073761;28;20267;-90
2022/06/28 10:41:35;;;;;;;3.72;2.70;;;24.60;99.90;;;;;;5073736;28;20338;-90
2022/06/28 10:44:07;;;;;;;2.63;2.42;;;24.40;99.90;;;;;;5073356;28;20256;-91
2022/06/28 10:46:34;;;;;;;2.80;2.60;;;24.20;99.90;;;;;;5047794;28;20178;-90
2022/06/28 10:49:08;;;;;;;2.55;2.30;;;24.40;99.90;;;;;;5050914;28;20208;-90
2022/06/28 10:51:36;;;;;;;2.45;2.25;;;24.50;99.90;;;;;;5052384;28;20288;-90
2022/06/28 10:54:08;;;;;;;2.78;2.58;;;24.50;99.90;;;;;;5032198;28;20192;-90
2022/06/28 10:56:52;;;;;;;3.05;2.30;;;24.50;99.90;;;;;;5071827;28;20208;-91
2022/06/28 10:59:49;;;;;;;3.35;2.05;;;24.60;99.90;;;;;;5039920;28;20629;-90
2022/06/28 11:02:21;;;;;;;2.60;2.45;;;24.70;99.90;;;;;;5025446;28;20208;-90
2022/06/28 11:05:05;;;;;;;2.80;2.60;;;24.80;99.90;;;;;;5040031;28;20275;-90
2022/06/28 11:07:58;;;;;;;2.67;2.47;;;24.70;99.90;;;;;;5056928;28;20632;-90
2022/06/28 11:10:33;;;;;;;3.60;2.70;;;24.60;99.90;;;;;;5045339;28;20554;-90
2022/06/28 11:13:21;;;;;;;6.10;5.50;;;24.50;99.90;;;;;;5018658;28;20189;-90
2022/06/28 11:15:50;;;;;;;3.00;2.70;;;24.60;99.90;;;;;;5033128;28;20213;-90
2022/06/28 11:18:27;;;;;;;2.72;2.53;;;24.60;99.90;;;;;;5033505;28;20189;-90
2022/06/28 11:20:54;;;;;;;3.25;2.30;;;24.60;99.90;;;;;;5016770;28;20296;-90
2022/06/28 11:23:28;;;;;;;5.22;2.70;;;24.60;99.90;;;;;;5053907;28;20236;-90
2022/06/28 11:29:01;;;;;;;3.10;2.80;;;24.70;99.90;;;;;;5053172;28;20177;-90
2022/06/28 11:31:54;;;;;;;4.55;4.25;;;24.80;99.90;;;;;;5038178;28;20193;-90
2022/06/28 11:34:30;;;;;;;2.92;2.72;;;24.70;99.90;;;;;;5049469;28;20740;-90
2022/06/28 11:36:56;;;;;;;2.60;2.40;;;24.60;99.90;;;;;;5038772;28;20214;-90
2022/06/28 11:39:23;;;;;;;2.20;2.03;;;24.50;99.90;;;;;;5039090;28;20259;-90
2022/06/28 11:41:55;;;;;;;2.20;2.10;;;24.50;99.90;;;;;;5038571;28;20633;-90
2022/06/28 11:44:22;;;;;;;2.10;1.90;;;24.60;99.90;;;;;;5038294;28;20264;-89
2022/06/28 11:46:50;;;;;;;2.25;2.15;;;24.70;99.90;;;;;;5038494;28;20184;-90
2022/06/28 11:49:29;;;;;;;2.20;2.10;;;24.60;99.90;;;;;;5038926;28;20271;-90
2022/06/28 11:51:55;;;;;;;2.40;2.10;;;24.50;99.90;;;;;;5055117;28;20201;-90
2022/06/28 11:54:21;;;;;;;2.78;2.45;;;24.60;99.90;;;;;;5038722;28;20181;-85
2022/06/28 11:56:47;;;;;;;2.30;2.17;;;24.70;99.90;;;;;;5038391;28;20213;-90
2022/06/28 11:59:17;;;;;;;2.40;2.20;;;24.70;99.90;;;;;;5038333;28;20203;-90
2022/06/28 12:01:43;;;;;;;2.45;2.35;;;24.90;99.90;;;;;;5038737;28;20794;-90
2022/06/28 12:04:10;;;;;;;2.40;2.20;;;25.00;99.90;;;;;;5055016;22;20161;-41
2022/06/28 12:06:42;;;;;;;3.17;2.60;;;25.10;99.90;;;;;;5049961;28;20681;-38
2022/06/28 12:09:14;;;;;;;2.38;2.17;;;25.20;99.90;;;;;;5072361;28;20242;-35
2022/06/28 12:11:40;;;;;;;2.45;2.25;;;25.30;99.90;;;;;;5018229;28;20182;-36
2022/06/28 12:14:08;;;;;;;2.13;1.92;;;25.40;99.90;;;;;;5046584;28;20178;-35
2022/06/28 12:16:44;;;;;;;2.58;2.35;;;25.40;99.90;;;;;;5056205;28;20222;-36
2022/06/28 12:22:10;;;;;;;2.75;1.88;;;25.30;99.90;;;;;;5062006;28;20236;-35
2022/06/28 12:25:03;;;;;;;2.38;2.17;;;25.00;99.90;;;;;;5045238;28;20189;-35
2022/06/28 12:27:34;;;;;;;2.03;1.92;;;24.90;99.90;;;;;;5047813;28;20201;-34
2022/06/28 12:30:01;;;;;;;1.88;1.77;;;24.90;99.90;;;;;;5057131;28;20230;-34
2022/06/28 12:32:28;;;;;;;2.45;1.80;;;24.90;99.90;;;;;;5042390;28;20185;-33
2022/06/28 12:35:05;;;;;;;2.03;1.83;;;25.10;99.90;;;;;;5039989;28;20197;-34
2022/06/28 12:37:32;;;;;;;1.50;1.40;;;25.00;99.90;;;;;;5045517;28;20193;-33
2022/06/28 12:39:59;;;;;;;1.67;1.50;;;25.00;99.90;;;;;;5026514;28;20174;-34
2022/06/28 12:42:27;;;;;;;1.63;1.52;;;25.10;99.90;;;;;;5040326;28;20181;-34
2022/06/28 12:44:55;;;;;;;1.48;1.38;;;25.20;99.90;;;;;;5017435;28;20257;-35
2022/06/28 12:47:21;;;;;;;1.52;1.42;;;25.30;99.90;;;;;;5023401;28;20209;-34
2022/06/28 12:49:47;;;;;;;2.10;1.50;;;25.20;99.90;;;;;;5021406;28;20182;-34
2022/06/28 12:52:13;;;;;;;1.70;1.60;;;25.30;99.90;;;;;;5002227;28;20195;-34
2022/06/28 12:54:39;;;;;;;3.13;1.60;;;25.30;99.90;;;;;;5022720;28;20665;-35
2022/06/28 12:57:05;;;;;;;1.63;1.40;;;25.30;99.90;;;;;;5036744;28;20237;-34
2022/06/28 12:59:31;;;;;;;3.45;1.50;;;25.00;99.90;;;;;;5017095;28;20182;-34
2022/06/28 13:01:58;;;;;;;2.38;1.45;;;25.20;99.90;;;;;;5033763;28;20179;-35
2022/06/28 13:04:24;;;;;;;2.42;1.48;;;25.40;99.90;;;;;;5046216;28;20178;-34
2022/06/28 13:06:50;;;;;;;1.77;1.67;;;25.40;99.90;;;;;;5037624;28;20271;-34
2022/06/28 13:09:16;;;;;;;1.70;1.60;;;25.50;99.90;;;;;;5029698;28;20299;-35
2022/06/28 13:11:42;;;;;;;1.90;1.67;;;25.60;99.90;;;;;;5016614;28;20193;-34
2022/06/28 13:14:08;;;;;;;1.80;1.70;;;25.80;99.90;;;;;;5019575;28;20185;-34
2022/06/28 13:16:34;;;;;;;2.38;1.65;;;25.90;99.90;;;;;;5034941;28;20316;-36
2022/06/28 13:19:00;;;;;;;1.80;1.70;;;25.80;99.90;;;;;;5024891;28;20272;-34
2022/06/28 13:21:26;;;;;;;1.60;1.50;;;25.80;99.90;;;;;;5029388;28;20186;-35